Time;durP1;ratioP1;P1;durP2;ratioP2;P2;SDS_P1;SDS_P2;PMS_P1;PMS_P2;Temp;Humidity;BMP_temperature;BMP_pressure;BME280_temperature;BME280_humidity;BME280_pressure;Samples;Min_cycle;Max_cycle;Signal;HPM_P1;HPM_P2
2023/10/04 00:00:27;;;;;;;9.30;2.45;;;11.80;99.90;;;;;;6044247;23;20018;-82
2023/10/04 00:03:22;;;;;;;8.02;2.35;;;11.90;99.90;;;;;;5969131;23;20471;-82
2023/10/04 00:17:30;;;;;;;10.75;2.30;;;11.80;99.90;;;;;;5980079;23;20051;-82
2023/10/04 00:20:44;;;;;;;;;;;;;;;;;;;;;
2023/10/04 00:24:02;;;;;;;8.93;2.28;;;11.70;99.90;;;;;;6006212;23;20027;-82
2023/10/04 00:27:06;;;;;;;9.32;2.60;;;11.70;99.90;;;;;;6076835;23;20069;-81
2023/10/04 00:30:43;;;;;;;7.65;2.05;;;11.70;99.90;;;;;;6077816;23;20106;-82
2023/10/04 00:34:04;;;;;;;;;;;;;;;;;;;;;
2023/10/04 00:37:33;;;;;;;7.15;2.50;;;11.70;99.90;;;;;;6079962;23;20017;-82
2023/10/04 00:40:27;;;;;;;6.05;1.98;;;11.70;99.90;;;;;;6062888;23;20025;-82
2023/10/04 00:46:57;;;;;;;5.95;1.90;;;11.70;99.90;;;;;;5976298;23;20099;-88
2023/10/04 00:57:08;;;;;;;9.77;2.08;;;11.60;99.90;;;;;;6038361;22;20059;-82
2023/10/04 00:59:35;;;;;;;10.50;2.40;;;11.60;99.90;;;;;;6237687;22;20293;-82
2023/10/04 01:02:00;;;;;;;7.78;2.58;;;11.60;99.90;;;;;;6236983;22;20016;-82
2023/10/04 01:04:27;;;;;;;6.25;2.33;;;11.60;99.90;;;;;;6237153;22;20069;-82
2023/10/04 01:06:54;;;;;;;9.48;2.53;;;11.60;99.90;;;;;;6235961;22;20020;-82
2023/10/04 01:09:23;;;;;;;10.85;2.30;;;11.60;99.90;;;;;;6262167;22;20492;-81
2023/10/04 01:11:49;;;;;;;9.60;2.30;;;11.60;99.90;;;;;;6235222;22;20023;-82
2023/10/04 01:14:25;;;;;;;8.23;2.40;;;11.60;99.90;;;;;;6236764;22;20019;-82
2023/10/04 01:16:52;;;;;;;11.55;2.72;;;11.70;99.90;;;;;;6235522;22;20053;-82
2023/10/04 01:19:22;;;;;;;12.57;2.53;;;11.70;99.90;;;;;;6262201;22;20437;-82
2023/10/04 01:21:49;;;;;;;12.40;2.53;;;11.60;99.90;;;;;;6261188;22;20682;-82
2023/10/04 01:24:17;;;;;;;11.07;2.30;;;11.60;99.90;;;;;;6261790;22;20023;-82
2023/10/04 01:26:42;;;;;;;7.82;2.40;;;11.50;99.90;;;;;;6235347;22;20030;-82
2023/10/04 01:29:11;;;;;;;11.23;2.85;;;11.50;99.90;;;;;;6237052;22;20016;-82
2023/10/04 01:31:38;;;;;;;13.23;2.55;;;11.60;99.90;;;;;;6235847;22;20429;-82
2023/10/04 01:34:06;;;;;;;8.55;2.40;;;11.60;99.90;;;;;;6262048;22;20015;-82
2023/10/04 01:36:32;;;;;;;14.48;2.80;;;11.60;99.90;;;;;;6233416;22;20194;-82
2023/10/04 01:38:58;;;;;;;9.98;2.53;;;11.60;99.90;;;;;;6261036;22;20425;-81
2023/10/04 01:41:28;;;;;;;17.25;2.97;;;11.70;99.90;;;;;;6235371;22;20012;-82
2023/10/04 01:44:00;;;;;;;13.98;2.67;;;11.70;99.90;;;;;;6261608;22;20316;-82
2023/10/04 01:46:26;;;;;;;10.90;2.65;;;11.70;99.90;;;;;;6262426;22;20020;-82
2023/10/04 01:48:54;;;;;;;10.95;2.92;;;11.70;99.90;;;;;;6234705;22;20429;-82
2023/10/04 01:51:21;;;;;;;10.05;2.80;;;11.70;99.90;;;;;;6260787;22;20461;-82
2023/10/04 01:53:47;;;;;;;18.13;2.90;;;11.70;99.90;;;;;;6235611;22;20019;-82
2023/10/04 01:56:13;;;;;;;11.32;2.88;;;11.80;99.90;;;;;;6235688;22;20027;-82
2023/10/04 01:58:38;;;;;;;9.50;3.10;;;11.70;99.90;;;;;;6236903;22;20058;-82
2023/10/04 02:01:08;;;;;;;11.98;2.70;;;11.70;99.90;;;;;;6236551;22;20395;-81
2023/10/04 02:03:34;;;;;;;10.35;2.50;;;11.80;99.90;;;;;;6262816;22;20019;-82
2023/10/04 02:05:59;;;;;;;10.20;2.47;;;11.70;99.90;;;;;;6261519;22;20154;-82
2023/10/04 02:08:26;;;;;;;7.90;2.55;;;11.70;99.90;;;;;;6235161;22;20016;-82
2023/10/04 02:10:54;;;;;;;10.30;2.20;;;11.70;99.90;;;;;;6236947;22;20022;-82
2023/10/04 02:13:20;;;;;;;12.05;2.53;;;11.70;99.90;;;;;;6235528;22;20058;-82
2023/10/04 02:15:48;;;;;;;11.52;2.38;;;11.70;99.90;;;;;;6261316;22;20019;-82
2023/10/04 02:18:21;;;;;;;12.05;2.45;;;11.70;99.90;;;;;;6262831;22;20065;-82
2023/10/04 02:20:53;;;;;;;9.07;2.60;;;11.80;99.90;;;;;;6236089;22;20228;-82
2023/10/04 02:23:19;;;;;;;10.63;2.20;;;11.70;99.90;;;;;;6261134;22;20037;-82
2023/10/04 02:25:45;;;;;;;8.25;2.75;;;11.60;99.90;;;;;;6236763;22;20555;-82
2023/10/04 02:28:11;;;;;;;7.93;2.75;;;11.60;99.90;;;;;;6235959;22;20527;-82
2023/10/04 02:30:40;;;;;;;10.50;2.78;;;11.60;99.90;;;;;;6236214;22;20021;-82
2023/10/04 02:33:13;;;;;;;6.68;2.22;;;11.60;99.90;;;;;;6259709;22;20395;-82
2023/10/04 02:35:44;;;;;;;10.02;2.40;;;11.60;99.90;;;;;;6237126;22;20011;-82
2023/10/04 02:38:19;;;;;;;9.93;2.33;;;11.60;99.90;;;;;;6234563;22;20046;-82
2023/10/04 02:40:50;;;;;;;9.75;2.30;;;11.60;99.90;;;;;;6236910;22;20012;-82
2023/10/04 02:43:25;;;;;;;8.27;2.40;;;11.60;99.90;;;;;;6261476;22;20404;-82
2023/10/04 02:45:52;;;;;;;10.48;2.58;;;11.60;99.90;;;;;;6262537;22;20111;-82
2023/10/04 02:48:19;;;;;;;11.70;2.78;;;11.70;99.90;;;;;;6236431;22;20522;-82
2023/10/04 02:50:46;;;;;;;10.13;2.30;;;11.70;99.90;;;;;;6237639;22;20065;-81
2023/10/04 02:53:19;;;;;;;11.90;3.00;;;11.60;99.90;;;;;;6235458;22;20309;-82
2023/10/04 02:55:54;;;;;;;7.38;2.53;;;11.60;99.90;;;;;;6238226;22;20007;-82
2023/10/04 02:58:20;;;;;;;9.50;2.70;;;11.60;99.90;;;;;;6236132;22;20011;-82
2023/10/04 03:00:46;;;;;;;10.50;3.08;;;11.60;99.90;;;;;;6236652;22;20352;-82
2023/10/04 03:03:13;;;;;;;14.30;2.50;;;11.70;99.90;;;;;;6236434;22;20012;-82
2023/10/04 03:05:40;;;;;;;7.40;2.30;;;11.70;99.90;;;;;;6236546;22;20033;-82
2023/10/04 03:08:06;;;;;;;10.68;2.45;;;11.70;99.90;;;;;;6234014;22;20062;-82
2023/10/04 03:10:33;;;;;;;10.82;2.83;;;11.50;99.90;;;;;;6263137;22;20091;-82
2023/10/04 03:13:10;;;;;;;11.30;2.70;;;11.60;99.90;;;;;;6236281;22;20495;-82
2023/10/04 03:15:35;;;;;;;13.40;2.85;;;11.70;99.90;;;;;;6263945;22;20043;-82
2023/10/04 03:18:13;;;;;;;7.93;2.58;;;11.60;99.90;;;;;;6263263;22;20019;-82
2023/10/04 03:20:45;;;;;;;11.75;2.92;;;11.70;99.90;;;;;;6262671;22;20046;-82
2023/10/04 03:23:11;;;;;;;9.10;3.28;;;11.60;99.90;;;;;;6235738;22;20016;-82
2023/10/04 03:25:37;;;;;;;10.02;2.90;;;11.60;99.90;;;;;;6262794;22;20471;-82
2023/10/04 03:28:03;;;;;;;8.80;2.65;;;11.70;99.90;;;;;;6261954;22;20015;-81
2023/10/04 03:30:31;;;;;;;13.77;2.53;;;11.60;99.90;;;;;;6262729;22;20019;-82
2023/10/04 03:32:57;;;;;;;12.18;2.70;;;11.60;99.90;;;;;;6236126;22;20035;-82
2023/10/04 03:35:26;;;;;;;10.00;2.70;;;11.50;99.90;;;;;;6262969;22;20023;-82
2023/10/04 03:37:58;;;;;;;12.77;2.67;;;11.50;99.90;;;;;;6235185;22;20078;-82
2023/10/04 03:40:37;;;;;;;12.07;2.75;;;11.60;99.90;;;;;;6237547;22;20332;-82
2023/10/04 03:43:05;;;;;;;9.38;2.75;;;11.60;99.90;;;;;;6236581;22;20019;-82
2023/10/04 03:45:41;;;;;;;8.75;3.33;;;11.60;99.90;;;;;;6237344;22;20034;-82
2023/10/04 03:48:15;;;;;;;15.73;3.17;;;11.60;99.90;;;;;;6235288;22;20069;-82
2023/10/04 03:50:47;;;;;;;9.02;2.60;;;11.70;99.90;;;;;;6262930;22;20022;-82
2023/10/04 03:53:14;;;;;;;16.80;3.30;;;11.60;99.90;;;;;;6235474;22;20350;-82
2023/10/04 03:55:40;;;;;;;12.15;2.60;;;11.70;99.90;;;;;;6236907;22;20043;-82
2023/10/04 03:58:07;;;;;;;12.65;2.75;;;11.70;99.90;;;;;;6236817;22;20011;-82
2023/10/04 04:00:34;;;;;;;13.25;2.70;;;11.70;99.90;;;;;;6263612;22;20456;-82
2023/10/04 04:02:59;;;;;;;17.00;2.90;;;11.80;99.90;;;;;;6240104;22;20012;-82
2023/10/04 04:05:25;;;;;;;13.57;3.75;;;11.70;99.90;;;;;;6263848;22;20457;-82
2023/10/04 04:07:52;;;;;;;12.85;5.03;;;11.60;99.90;;;;;;6263182;22;20022;-82
2023/10/04 04:10:19;;;;;;;12.32;2.75;;;11.60;99.90;;;;;;6265224;22;20018;-82
2023/10/04 04:12:46;;;;;;;8.35;2.60;;;11.60;99.90;;;;;;6263338;22;20011;-82
2023/10/04 04:15:14;;;;;;;11.15;2.92;;;11.50;99.90;;;;;;6264716;22;20297;-81
2023/10/04 04:17:41;;;;;;;10.93;2.72;;;11.60;99.90;;;;;;6239458;22;20019;-82
2023/10/04 04:20:14;;;;;;;14.40;2.97;;;11.60;99.90;;;;;;6238574;22;20018;-82
2023/10/04 04:22:46;;;;;;;11.55;3.00;;;11.60;99.90;;;;;;6263173;22;20012;-82
2023/10/04 04:25:15;;;;;;;11.70;2.72;;;11.50;99.90;;;;;;6238439;22;20085;-82
2023/10/04 04:27:44;;;;;;;21.25;3.30;;;11.60;99.90;;;;;;6235916;22;20019;-82
2023/10/04 04:30:16;;;;;;;12.15;2.95;;;11.60;99.90;;;;;;6239245;22;20015;-82
2023/10/04 04:32:47;;;;;;;16.23;2.80;;;11.50;99.90;;;;;;6237882;22;20047;-82
2023/10/04 04:35:22;;;;;;;8.50;2.90;;;11.60;99.90;;;;;;6237338;22;20018;-82
2023/10/04 04:37:49;;;;;;;12.32;2.80;;;11.60;99.90;;;;;;6260204;22;20015;-82
2023/10/04 04:40:21;;;;;;;15.02;3.03;;;11.60;99.90;;;;;;6236822;22;20336;-82
2023/10/04 04:42:47;;;;;;;8.35;2.83;;;11.60;99.90;;;;;;6237262;22;20012;-82
2023/10/04 04:45:25;;;;;;;14.45;3.45;;;11.50;99.90;;;;;;6263911;22;20293;-82
2023/10/04 04:47:52;;;;;;;10.43;2.83;;;11.50;99.90;;;;;;6238439;22;20019;-82
2023/10/04 04:50:19;;;;;;;8.07;2.90;;;11.50;99.90;;;;;;6264467;22;20018;-82
2023/10/04 04:52:44;;;;;;;11.32;3.47;;;11.60;99.90;;;;;;6236312;22;20015;-82
2023/10/04 04:55:11;;;;;;;8.25;2.83;;;11.60;99.90;;;;;;6264211;22;20016;-82
2023/10/04 04:57:38;;;;;;;7.70;2.50;;;11.70;99.90;;;;;;6235527;22;20012;-82
2023/10/04 05:00:31;;;;;;;12.82;2.72;;;11.70;99.90;;;;;;6238926;22;20008;-82
2023/10/04 05:02:52;;;;;;;12.00;2.97;;;11.70;99.90;;;;;;6262743;22;20020;-82
2023/10/04 05:05:20;;;;;;;9.55;3.20;;;11.80;99.90;;;;;;6237553;22;20019;-82
2023/10/04 05:07:47;;;;;;;10.98;2.92;;;11.80;99.90;;;;;;6236636;22;20300;-82
2023/10/04 05:10:14;;;;;;;10.55;3.00;;;11.80;99.90;;;;;;6236944;22;20016;-82
2023/10/04 05:12:41;;;;;;;12.57;3.05;;;11.80;99.90;;;;;;6237214;22;20102;-82
2023/10/04 05:15:22;;;;;;;9.55;2.83;;;11.90;99.90;;;;;;6236900;22;20407;-82
2023/10/04 05:17:50;;;;;;;10.98;3.38;;;11.90;99.90;;;;;;6262525;22;20441;-82
2023/10/04 05:20:20;;;;;;;13.13;3.50;;;11.90;99.90;;;;;;6236444;22;20007;-83
2023/10/04 05:22:47;;;;;;;17.50;3.00;;;12.00;99.90;;;;;;6236251;22;20437;-82
2023/10/04 05:25:15;;;;;;;7.03;2.63;;;12.00;99.90;;;;;;6238405;22;20023;-82
2023/10/04 05:27:42;;;;;;;12.40;3.53;;;12.00;99.90;;;;;;6236536;22;20023;-82
2023/10/04 05:30:13;;;;;;;15.68;3.20;;;11.90;99.90;;;;;;6263418;22;20437;-81
2023/10/04 05:32:40;;;;;;;10.15;3.10;;;12.00;99.90;;;;;;6261746;22;20099;-81
2023/10/04 05:35:07;;;;;;;13.02;3.30;;;12.00;99.90;;;;;;6236684;22;20449;-82
2023/10/04 05:37:33;;;;;;;9.68;2.90;;;12.00;99.90;;;;;;6236827;22;20008;-82
2023/10/04 05:39:59;;;;;;;11.40;3.38;;;12.00;99.90;;;;;;6238882;22;20298;-82
2023/10/04 05:42:25;;;;;;;10.00;3.20;;;12.00;99.90;;;;;;6236117;22;20401;-82
2023/10/04 05:44:52;;;;;;;8.07;2.95;;;12.00;99.90;;;;;;6262493;22;20050;-82
2023/10/04 05:47:17;;;;;;;11.93;3.45;;;12.20;99.90;;;;;;6236590;22;20255;-82
2023/10/04 05:49:44;;;;;;;9.65;3.60;;;12.10;99.90;;;;;;6263610;22;20012;-82
2023/10/04 05:52:09;;;;;;;10.15;2.85;;;12.20;99.90;;;;;;6261787;22;20015;-82
2023/10/04 05:54:35;;;;;;;11.38;3.08;;;12.10;99.90;;;;;;6236365;22;20110;-82
2023/10/04 05:57:02;;;;;;;10.80;2.30;;;12.20;99.90;;;;;;6236108;22;20013;-82
2023/10/04 05:59:27;;;;;;;9.73;2.40;;;12.20;99.90;;;;;;6238165;22;20022;-82
2023/10/04 06:01:53;;;;;;;14.35;2.90;;;12.20;99.90;;;;;;6237513;22;20098;-82
2023/10/04 06:04:19;;;;;;;6.68;2.38;;;12.10;99.90;;;;;;6236190;22;20019;-82
2023/10/04 06:06:45;;;;;;;11.77;3.15;;;12.20;99.90;;;;;;6235113;22;20015;-82
2023/10/04 06:09:10;;;;;;;10.23;3.08;;;12.20;99.90;;;;;;6237136;22;20335;-82
2023/10/04 06:11:36;;;;;;;7.05;2.08;;;12.20;99.90;;;;;;6261160;22;20047;-82
2023/10/04 06:14:02;;;;;;;7.03;2.33;;;12.10;99.90;;;;;;6262004;22;20042;-82
2023/10/04 06:16:28;;;;;;;7.38;2.20;;;12.20;99.90;;;;;;6237891;22;20008;-82
2023/10/04 06:18:53;;;;;;;9.05;2.80;;;12.20;99.90;;;;;;6237756;22;20023;-82
2023/10/04 06:21:19;;;;;;;14.63;2.83;;;12.30;99.90;;;;;;6262220;22;20011;-82
2023/10/04 06:23:45;;;;;;;7.63;2.30;;;12.30;99.90;;;;;;6262744;22;20420;-82
2023/10/04 06:26:16;;;;;;;8.52;2.50;;;12.30;99.90;;;;;;6237047;22;20243;-82
2023/10/04 06:28:43;;;;;;;10.85;2.80;;;12.30;99.90;;;;;;6235926;22;20294;-82
2023/10/04 06:31:08;;;;;;;8.40;2.85;;;12.30;99.90;;;;;;6237851;22;20022;-82
2023/10/04 06:33:34;;;;;;;8.43;2.40;;;12.30;99.90;;;;;;6262485;22;20019;-82
2023/10/04 06:36:00;;;;;;;11.20;2.72;;;12.40;99.90;;;;;;6236988;22;20095;-82
2023/10/04 06:38:26;;;;;;;8.77;2.58;;;12.40;99.90;;;;;;6262388;22;20039;-82
2023/10/04 06:40:52;;;;;;;11.85;3.00;;;12.50;99.90;;;;;;6263441;22;20015;-82
2023/10/04 06:43:20;;;;;;;11.52;2.40;;;12.50;99.90;;;;;;6262644;22;20388;-82
2023/10/04 06:45:46;;;;;;;7.88;2.45;;;12.50;99.90;;;;;;6262983;22;20016;-82
2023/10/04 06:48:12;;;;;;;10.90;2.75;;;12.60;99.90;;;;;;6262914;22;20100;-82
2023/10/04 06:50:41;;;;;;;6.80;2.67;;;12.60;99.90;;;;;;6238113;22;20099;-82
2023/10/04 06:53:12;;;;;;;7.30;3.03;;;12.70;99.90;;;;;;6235954;22;20039;-82
2023/10/04 06:55:38;;;;;;;7.90;2.67;;;12.70;99.90;;;;;;6237908;22;20019;-82
2023/10/04 06:58:04;;;;;;;10.95;2.85;;;12.70;99.90;;;;;;6236328;22;20095;-82
2023/10/04 07:00:30;;;;;;;9.63;3.97;;;12.80;99.90;;;;;;6262411;22;20011;-82
2023/10/04 07:02:58;;;;;;;10.93;3.40;;;12.90;99.90;;;;;;6237434;22;20008;-82
2023/10/04 07:05:31;;;;;;;10.38;3.30;;;13.00;99.90;;;;;;6262481;22;20018;-82
2023/10/04 07:07:57;;;;;;;9.30;2.85;;;13.00;99.90;;;;;;6261318;22;20086;-82
2023/10/04 07:10:27;;;;;;;10.55;3.13;;;13.20;99.90;;;;;;6237580;22;20050;-82
2023/10/04 07:12:56;;;;;;;9.30;3.08;;;13.20;99.90;;;;;;6261715;22;20019;-82
2023/10/04 07:15:24;;;;;;;12.40;2.90;;;13.30;99.90;;;;;;6237204;22;20286;-82
2023/10/04 07:17:51;;;;;;;13.98;3.58;;;13.30;99.90;;;;;;6262512;22;20460;-82
2023/10/04 07:20:20;;;;;;;8.18;3.08;;;13.40;99.90;;;;;;6237376;22;20087;-82
2023/10/04 07:22:58;;;;;;;8.88;3.00;;;13.50;99.90;;;;;;6235552;22;20353;-82
2023/10/04 07:25:32;;;;;;;13.93;3.10;;;13.60;99.90;;;;;;6263062;22;20639;-82
2023/10/04 07:28:03;;;;;;;7.50;2.85;;;13.70;99.90;;;;;;6236154;22;20019;-82
2023/10/04 07:30:30;;;;;;;6.90;2.67;;;13.80;99.90;;;;;;6237502;22;20012;-82
2023/10/04 07:32:58;;;;;;;11.35;3.13;;;13.80;99.90;;;;;;6235896;22;20023;-83
2023/10/04 07:35:27;;;;;;;11.80;3.33;;;13.90;99.90;;;;;;6237331;22;20479;-83
2023/10/04 07:37:55;;;;;;;8.75;3.65;;;13.90;99.90;;;;;;6238302;22;20097;-83
2023/10/04 07:40:24;;;;;;;9.73;2.78;;;14.10;99.90;;;;;;6239349;22;20015;-82
2023/10/04 07:42:54;;;;;;;10.88;3.70;;;14.10;99.90;;;;;;6238141;22;20008;-82
2023/10/04 07:45:22;;;;;;;9.55;2.80;;;14.20;99.90;;;;;;6239129;22;20445;-82
2023/10/04 07:47:47;;;;;;;12.48;3.75;;;14.30;99.90;;;;;;6264078;22;20021;-83
2023/10/04 07:50:18;;;;;;;11.00;3.33;;;14.40;99.90;;;;;;6265072;22;20340;-82
2023/10/04 07:52:44;;;;;;;9.43;3.33;;;14.50;99.90;;;;;;6237989;22;20054;-82
2023/10/04 07:55:17;;;;;;;13.00;3.58;;;14.60;99.90;;;;;;6239848;22;20012;-82
2023/10/04 07:57:52;;;;;;;9.52;3.08;;;14.70;99.90;;;;;;6212488;22;20012;-82
2023/10/04 08:00:18;;;;;;;11.25;3.08;;;14.80;99.90;;;;;;6237513;22;20094;-83
2023/10/04 08:02:52;;;;;;;10.25;3.17;;;14.90;99.90;;;;;;6237690;22;20289;-83
2023/10/04 08:05:23;;;;;;;13.93;3.50;;;15.00;99.90;;;;;;6236351;22;20018;-82
2023/10/04 08:07:56;;;;;;;8.75;3.03;;;15.10;99.90;;;;;;6235587;22;20285;-82
2023/10/04 08:10:25;;;;;;;13.68;3.78;;;15.10;99.90;;;;;;6263294;22;20015;-83
2023/10/04 08:12:54;;;;;;;14.38;3.35;;;15.10;99.90;;;;;;6234696;22;20015;-82
2023/10/04 08:15:27;;;;;;;6.32;2.53;;;15.20;99.90;;;;;;6236487;22;20012;-82
2023/10/04 08:17:58;;;;;;;11.30;3.38;;;15.30;99.90;;;;;;6261159;22;20007;-82
2023/10/04 08:20:26;;;;;;;9.63;2.85;;;15.30;99.90;;;;;;6262209;22;20019;-82
2023/10/04 08:22:52;;;;;;;12.43;3.00;;;15.30;99.90;;;;;;6234644;22;20110;-82
2023/10/04 08:25:21;;;;;;;11.88;2.80;;;15.30;99.90;;;;;;6235919;22;20103;-82
2023/10/04 08:27:50;;;;;;;11.55;3.03;;;15.30;99.90;;;;;;6236633;22;20027;-82
2023/10/04 08:30:18;;;;;;;14.68;3.28;;;15.30;99.90;;;;;;6238487;22;20061;-82
2023/10/04 08:32:47;;;;;;;11.70;3.47;;;15.30;99.90;;;;;;6239171;22;20027;-82
2023/10/04 08:35:28;;;;;;;7.43;2.80;;;15.30;99.90;;;;;;6238809;22;20249;-82
2023/10/04 08:37:58;;;;;;;10.27;3.30;;;15.40;99.90;;;;;;6237645;22;20058;-82
2023/10/04 08:40:29;;;;;;;11.05;2.65;;;15.50;99.90;;;;;;6264055;22;20015;-82
2023/10/04 08:42:55;;;;;;;11.00;3.65;;;15.60;99.90;;;;;;6263895;22;20410;-82
2023/10/04 08:45:22;;;;;;;7.45;2.90;;;15.70;99.90;;;;;;6238966;22;20011;-82
2023/10/04 08:47:50;;;;;;;10.88;3.05;;;15.70;99.90;;;;;;6264077;22;20533;-82
2023/10/04 08:50:26;;;;;;;12.80;3.30;;;15.90;99.90;;;;;;6238604;22;20016;-82
2023/10/04 08:52:56;;;;;;;9.32;2.85;;;16.00;99.90;;;;;;6262997;22;20019;-82
2023/10/04 08:55:23;;;;;;;9.00;3.20;;;15.90;99.90;;;;;;6238498;22;20024;-83
2023/10/04 08:57:50;;;;;;;9.13;2.90;;;16.00;99.90;;;;;;6236876;22;20043;-82
2023/10/04 09:00:23;;;;;;;8.68;3.20;;;16.00;99.90;;;;;;6263455;22;20022;-82
2023/10/04 09:02:50;;;;;;;10.10;2.88;;;16.10;99.90;;;;;;6264073;22;20023;-82
2023/10/04 09:05:23;;;;;;;8.98;2.85;;;16.20;99.90;;;;;;6238810;22;20467;-82
2023/10/04 09:07:53;;;;;;;8.85;2.90;;;16.30;99.90;;;;;;6236873;22;20098;-83
2023/10/04 09:10:19;;;;;;;8.85;2.92;;;16.30;99.90;;;;;;6238645;22;20012;-82
2023/10/04 09:12:47;;;;;;;7.80;2.70;;;16.40;99.90;;;;;;6237114;22;20483;-82
2023/10/04 09:15:16;;;;;;;8.77;2.92;;;16.40;99.90;;;;;;6237908;22;20015;-83
2023/10/04 09:17:47;;;;;;;10.55;3.10;;;16.60;99.90;;;;;;6239021;22;20043;-82
2023/10/04 09:20:16;;;;;;;10.27;2.97;;;16.70;99.90;;;;;;6238793;22;20015;-82
2023/10/04 09:22:43;;;;;;;10.30;3.35;;;16.90;99.90;;;;;;6237842;22;20042;-82
2023/10/04 09:25:09;;;;;;;13.88;3.08;;;16.70;99.90;;;;;;6264328;22;20042;-83
2023/10/04 09:27:37;;;;;;;11.25;3.65;;;16.70;99.90;;;;;;6237883;22;20479;-82
2023/10/04 09:30:20;;;;;;;8.50;2.88;;;16.70;99.90;;;;;;6240097;22;20018;-82
2023/10/04 09:32:46;;;;;;;9.30;2.90;;;16.60;99.90;;;;;;6238577;22;20016;-82
2023/10/04 09:35:12;;;;;;;7.93;2.90;;;16.60;99.90;;;;;;6238847;22;20015;-83
2023/10/04 09:37:40;;;;;;;9.82;3.00;;;16.80;99.90;;;;;;6262062;22;20018;-82
2023/10/04 09:40:11;;;;;;;8.55;2.90;;;16.80;99.90;;;;;;6238280;22;20185;-82
2023/10/04 09:42:47;;;;;;;7.88;2.33;;;16.90;99.90;;;;;;6237144;22;20039;-83
2023/10/04 09:45:13;;;;;;;6.95;3.22;;;17.30;99.90;;;;;;6238846;22;20270;-82
2023/10/04 09:47:39;;;;;;;10.32;3.30;;;17.50;99.90;;;;;;6238380;22;20322;-82
2023/10/04 09:50:25;;;;;;;8.90;3.17;;;17.50;99.90;;;;;;6263855;22;20051;-82
2023/10/04 09:52:52;;;;;;;9.25;3.50;;;17.70;99.90;;;;;;6236827;22;20506;-82
2023/10/04 09:55:22;;;;;;;12.68;3.40;;;17.60;99.90;;;;;;6237686;22;20015;-83
2023/10/04 09:57:48;;;;;;;8.90;2.85;;;17.50;99.90;;;;;;6236673;22;20479;-82
2023/10/04 10:00:18;;;;;;;9.10;2.95;;;17.60;99.90;;;;;;6237426;22;20090;-83
2023/10/04 10:02:51;;;;;;;9.98;3.00;;;17.70;99.90;;;;;;6237865;22;20022;-82
2023/10/04 10:05:34;;;;;;;8.05;2.83;;;17.50;99.90;;;;;;6238142;22;20016;-82
2023/10/04 10:08:07;;;;;;;10.20;3.17;;;17.70;99.90;;;;;;6261456;22;20016;-83
2023/10/04 10:10:42;;;;;;;10.50;4.03;;;18.10;99.90;;;;;;6238204;22;20389;-82
2023/10/04 10:13:08;;;;;;;;;;;18.30;99.90;;;;;;6236732;22;20019;-82
2023/10/04 10:15:40;;;;;;;12.52;2.85;;;18.30;99.90;;;;;;6237010;22;19919;-82
2023/10/04 10:18:07;;;;;;;8.73;3.17;;;18.00;99.90;;;;;;6236357;22;20011;-82
2023/10/04 10:20:34;;;;;;;7.00;2.97;;;17.90;99.90;;;;;;6237749;22;20016;-82
2023/10/04 10:22:59;;;;;;;5.70;2.80;;;17.80;99.90;;;;;;6236180;22;20015;-82
2023/10/04 10:25:29;;;;;;;9.02;2.70;;;17.80;99.90;;;;;;6237433;22;20027;-82
2023/10/04 10:28:02;;;;;;;6.90;2.95;;;17.70;99.90;;;;;;6237088;22;20026;-82
2023/10/04 10:30:31;;;;;;;11.77;3.25;;;17.80;99.90;;;;;;6237433;22;20624;-83
2023/10/04 10:32:58;;;;;;;7.35;2.80;;;17.60;99.90;;;;;;6237537;22;20020;-82
2023/10/04 10:35:46;;;;;;;11.35;3.55;;;17.60;99.90;;;;;;6236419;22;20026;-83
2023/10/04 10:38:39;;;;;;;5.82;2.80;;;17.70;99.90;;;;;;6261366;22;20336;-83
2023/10/04 10:41:25;;;;;;;9.65;2.90;;;17.60;99.90;;;;;;6236746;22;20102;-82
2023/10/04 10:44:30;;;;;;;12.43;3.25;;;17.70;99.90;;;;;;6236777;22;20094;-82
2023/10/04 10:47:07;;;;;;;13.82;3.78;;;17.60;99.90;;;;;;6262185;22;20448;-83
2023/10/04 10:49:42;;;;;;;8.02;2.90;;;17.80;99.90;;;;;;6237344;22;20016;-83
2023/10/04 10:52:09;;;;;;;;;;;17.80;99.90;;;;;;6236812;22;20023;-83
2023/10/04 10:54:36;;;;;;;8.05;3.10;;;17.70;99.90;;;;;;6237313;22;19955;-82
2023/10/04 10:57:05;;;;;;;8.73;3.45;;;17.60;99.90;;;;;;6237012;22;20015;-82
2023/10/04 10:59:33;;;;;;;9.75;3.15;;;17.50;99.90;;;;;;6237580;22;20015;-82
2023/10/04 11:01:59;;;;;;;7.28;3.50;;;17.40;99.90;;;;;;6236753;22;20491;-82
2023/10/04 11:04:24;;;;;;;7.20;3.03;;;17.50;99.90;;;;;;6237467;22;20023;-82
2023/10/04 11:06:51;;;;;;;6.60;2.47;;;17.50;99.90;;;;;;6235512;22;20298;-83
2023/10/04 11:09:20;;;;;;;7.00;3.17;;;17.30;99.90;;;;;;6260603;22;20018;-82
2023/10/04 11:11:47;;;;;;;8.00;2.83;;;17.50;99.90;;;;;;6235266;22;20020;-83
2023/10/04 11:14:16;;;;;;;9.32;3.50;;;17.40;99.90;;;;;;6237842;22;20065;-83
2023/10/04 11:16:42;;;;;;;7.60;3.45;;;17.50;99.90;;;;;;6263066;22;20349;-83
2023/10/04 11:19:09;;;;;;;9.63;3.40;;;17.60;99.90;;;;;;6237518;22;20047;-83
2023/10/04 11:21:35;;;;;;;13.00;3.28;;;17.60;99.90;;;;;;6236816;22;20012;-83
2023/10/04 11:24:03;;;;;;;6.93;2.80;;;17.40;99.90;;;;;;6236692;22;20101;-82
2023/10/04 11:26:30;;;;;;;5.72;2.90;;;17.20;99.90;;;;;;6236301;22;20099;-82
2023/10/04 11:28:57;;;;;;;10.35;3.67;;;16.90;99.90;;;;;;6262061;22;20456;-82
2023/10/04 11:31:23;;;;;;;10.57;3.63;;;16.90;99.90;;;;;;6236984;22;20024;-83
2023/10/04 11:33:53;;;;;;;9.63;3.55;;;17.20;99.90;;;;;;6236303;22;20034;-82
2023/10/04 11:36:23;;;;;;;10.85;3.70;;;17.10;99.90;;;;;;6262064;22;20406;-83
2023/10/04 11:38:50;;;;;;;11.30;3.30;;;17.30;99.90;;;;;;6260887;22;20300;-82
2023/10/04 11:41:17;;;;;;;10.38;2.97;;;17.20;99.90;;;;;;6236744;22;20453;-83
2023/10/04 11:43:53;;;;;;;11.05;3.42;;;17.40;99.90;;;;;;6236695;22;20068;-83
2023/10/04 11:46:19;;;;;;;8.93;3.20;;;17.20;99.90;;;;;;6236074;22;20015;-82
2023/10/04 11:48:47;;;;;;;10.90;3.17;;;17.40;99.90;;;;;;6236971;22;20004;-83
2023/10/04 11:51:26;;;;;;;10.23;2.97;;;17.40;99.90;;;;;;6236094;22;20077;-83
2023/10/04 11:53:54;;;;;;;10.65;3.22;;;17.80;99.90;;;;;;6235284;22;20039;-82
2023/10/04 11:56:19;;;;;;;7.35;3.22;;;17.90;99.90;;;;;;6235850;22;20046;-82
2023/10/04 11:58:49;;;;;;;10.40;3.00;;;17.90;99.90;;;;;;6236554;22;20487;-82
2023/10/04 12:01:22;;;;;;;9.18;3.20;;;18.00;99.90;;;;;;6236216;22;20016;-83
2023/10/04 12:03:50;;;;;;;8.02;3.03;;;18.20;99.90;;;;;;6261903;22;20015;-83
2023/10/04 12:06:30;;;;;;;8.32;3.03;;;18.00;99.90;;;;;;6261670;22;20085;-82
2023/10/04 12:08:59;;;;;;;14.90;3.30;;;18.00;99.90;;;;;;6236586;22;20020;-83
2023/10/04 12:11:25;;;;;;;7.45;3.08;;;18.00;99.90;;;;;;6236587;22;20376;-83
2023/10/04 12:13:55;;;;;;;7.30;2.83;;;18.10;99.90;;;;;;6236307;22;20015;-83
2023/10/04 12:16:21;;;;;;;7.32;3.28;;;17.90;99.90;;;;;;6236632;22;20039;-83
2023/10/04 12:18:47;;;;;;;13.45;2.90;;;17.80;99.90;;;;;;6236506;22;20432;-83
2023/10/04 12:21:13;;;;;;;10.98;3.28;;;17.90;99.90;;;;;;6236417;22;20103;-82
2023/10/04 12:23:39;;;;;;;8.75;2.83;;;18.10;99.90;;;;;;6238511;22;20386;-83
2023/10/04 12:26:05;;;;;;;9.40;2.80;;;18.10;99.90;;;;;;6238414;22;20011;-83
2023/10/04 12:28:31;;;;;;;10.75;3.20;;;17.90;99.90;;;;;;6238456;22;20022;-82
2023/10/04 12:31:01;;;;;;;11.75;3.10;;;17.90;99.90;;;;;;6238222;22;20015;-83
2023/10/04 12:33:30;;;;;;;9.90;3.13;;;18.00;99.90;;;;;;6238213;22;20043;-82
2023/10/04 12:35:57;;;;;;;7.95;2.78;;;17.80;99.90;;;;;;6263958;22;20022;-82
2023/10/04 12:38:24;;;;;;;10.68;3.20;;;18.10;99.90;;;;;;6236895;22;20041;-82
2023/10/04 12:40:50;;;;;;;9.43;2.88;;;18.20;99.90;;;;;;6238555;22;20046;-82
2023/10/04 12:43:16;;;;;;;11.15;2.97;;;18.30;99.90;;;;;;6237133;22;20016;-83
2023/10/04 12:45:42;;;;;;;8.10;3.30;;;18.50;99.90;;;;;;6238601;22;20020;-84
2023/10/04 12:48:08;;;;;;;8.13;2.97;;;18.70;99.90;;;;;;6237757;22;20090;-83
2023/10/04 12:50:35;;;;;;;9.68;3.03;;;18.50;99.90;;;;;;6264152;22;20303;-82
2023/10/04 12:53:01;;;;;;;9.27;3.65;;;18.60;99.90;;;;;;6237268;22;20433;-83
2023/10/04 12:55:27;;;;;;;10.25;3.35;;;18.20;99.90;;;;;;6238540;22;20082;-83
2023/10/04 12:57:53;;;;;;;9.45;2.90;;;18.50;99.90;;;;;;6262690;22;20449;-83
2023/10/04 13:00:25;;;;;;;14.52;3.55;;;18.40;99.90;;;;;;6237604;22;20022;-82
2023/10/04 13:02:55;;;;;;;8.32;2.50;;;18.40;99.90;;;;;;6238207;22;20047;-83
2023/10/04 13:05:22;;;;;;;8.35;2.90;;;18.30;99.90;;;;;;6263389;22;20417;-83
2023/10/04 13:07:48;;;;;;;8.13;2.40;;;18.40;99.90;;;;;;6237056;22;20061;-83
2023/10/04 13:10:15;;;;;;;7.00;2.35;;;18.20;99.90;;;;;;6264153;22;20111;-83
2023/10/04 13:12:41;;;;;;;7.50;2.63;;;18.20;99.90;;;;;;6237425;22;20023;-83
2023/10/04 13:15:10;;;;;;;5.70;2.40;;;18.00;99.90;;;;;;6264481;22;20073;-83
2023/10/04 13:17:36;;;;;;;6.80;2.20;;;18.00;99.90;;;;;;6237985;22;20019;-83
2023/10/04 13:20:10;;;;;;;6.85;2.30;;;17.80;99.90;;;;;;6263649;22;20421;-83
2023/10/04 13:22:37;;;;;;;7.90;2.45;;;18.00;99.90;;;;;;6236884;22;20460;-83